createdAt,value
2019-05-03T00:01:02.266Z,3.03
2019-05-03T00:03:28.974Z,3.57
2019-05-03T00:05:58.891Z,3.80
2019-05-03T00:08:25.659Z,4.40
2019-05-03T00:10:52.385Z,3.30
2019-05-03T00:13:19.166Z,3.67
2019-05-03T00:16:05.544Z,3.70
2019-05-03T00:18:32.742Z,3.70
2019-05-03T00:21:02.164Z,3.93
2019-05-03T00:23:29.852Z,3.30
2019-05-03T00:25:56.582Z,3.50
2019-05-03T00:28:23.362Z,3.97
2019-05-03T00:30:51.852Z,4.03
2019-05-03T00:33:19.497Z,4.10
2019-05-03T00:36:06.095Z,4.07
2019-05-03T00:38:33.080Z,3.90
2019-05-03T00:41:01.746Z,4.20
2019-05-03T00:43:28.615Z,4.20
2019-05-03T00:45:55.342Z,3.90
2019-05-03T00:48:22.101Z,3.87
2019-05-03T00:51:08.443Z,3.67
2019-05-03T00:53:35.204Z,3.50
2019-05-03T00:56:01.942Z,2.93
2019-05-03T00:58:28.805Z,3.00
2019-05-03T01:00:55.684Z,3.30
2019-05-03T01:03:22.546Z,3.20
2019-05-03T01:05:49.676Z,3.37
2019-05-03T01:08:16.758Z,2.80
2019-05-03T01:10:43.498Z,3.67
2019-05-03T01:13:12.233Z,3.30
2019-05-03T01:18:41.822Z,3.67
2019-05-03T01:21:31.752Z,3.33
2019-05-03T01:23:58.996Z,3.20
2019-05-03T01:26:25.694Z,3.63
2019-05-03T01:28:52.506Z,3.27
2019-05-03T01:31:19.469Z,2.80
2019-05-03T01:33:46.247Z,2.83
2019-05-03T01:36:12.970Z,3.00
2019-05-03T01:38:39.923Z,3.63
2019-05-03T01:41:06.657Z,3.10
2019-05-03T01:43:33.390Z,3.57
2019-05-03T01:46:00.229Z,3.10
2019-05-03T01:48:46.574Z,3.20
2019-05-03T01:51:33.007Z,2.90
2019-05-03T01:54:01.369Z,2.80
2019-05-03T01:56:28.488Z,2.83
2019-05-03T01:58:55.453Z,2.97
2019-05-03T02:04:35.731Z,2.77
2019-05-03T02:07:22.397Z,2.60
2019-05-03T02:09:51.888Z,2.60
2019-05-03T02:12:18.580Z,2.40
2019-05-03T02:14:45.322Z,2.30
2019-05-03T02:17:12.557Z,2.63
2019-05-03T02:19:39.224Z,2.83
2019-05-03T02:22:06.081Z,2.40
2019-05-03T02:24:54.415Z,2.20
2019-05-03T02:27:22.000Z,2.30
2019-05-03T02:29:52.309Z,2.10
2019-05-03T02:32:33.210Z,2.50
2019-05-03T02:35:02.544Z,2.90
2019-05-03T02:37:28.871Z,2.50
2019-05-03T02:43:10.254Z,2.80
2019-05-03T02:51:03.219Z,2.23
2019-05-03T02:53:29.969Z,2.40
2019-05-03T02:56:13.006Z,2.20
2019-05-03T02:58:25.589Z,3.13
2019-05-03T03:04:16.003Z,2.03
2019-05-03T03:07:25.971Z,2.47
2019-05-03T03:10:12.439Z,2.10
2019-05-03T03:13:20.356Z,2.20
2019-05-03T03:16:28.240Z,2.47
2019-05-03T03:19:36.005Z,2.50
2019-05-03T03:22:45.661Z,2.07
2019-05-03T03:25:55.896Z,2.40
2019-05-03T03:28:25.293Z,2.30
2019-05-03T03:31:30.816Z,2.40
2019-05-03T03:34:19.034Z,2.50
2019-05-03T03:37:29.389Z,2.27
2019-05-03T03:39:56.281Z,2.07
2019-05-03T03:42:25.157Z,2.37
2019-05-03T03:44:52.144Z,2.30
2019-05-03T03:47:40.492Z,2.27
2019-05-03T03:50:08.225Z,2.10
2019-05-03T03:52:36.812Z,2.40
2019-05-03T03:55:06.445Z,2.00
2019-05-03T03:57:55.778Z,1.70
2019-05-03T04:00:25.532Z,2.40
2019-05-03T04:03:32.939Z,2.07
2019-05-03T04:06:00.026Z,2.13
2019-05-03T04:08:27.148Z,2.10
2019-05-03T04:10:55.893Z,2.27
2019-05-03T04:16:20.993Z,2.87
2019-05-03T04:22:01.431Z,2.40
2019-05-03T04:24:28.856Z,2.20
2019-05-03T04:27:36.733Z,2.40
2019-05-03T04:30:05.899Z,2.47
2019-05-03T04:32:32.608Z,2.60
2019-05-03T04:34:59.522Z,2.67
2019-05-03T04:37:26.808Z,2.07
2019-05-03T04:39:56.211Z,2.27
2019-05-03T04:42:25.387Z,2.20
2019-05-03T04:44:56.224Z,2.50
2019-05-03T04:47:26.049Z,3.00
2019-05-03T04:49:55.280Z,2.30
2019-05-03T04:52:21.405Z,2.87
2019-05-03T04:55:08.020Z,2.80
2019-05-03T04:57:40.662Z,2.07
2019-05-03T05:00:06.028Z,2.63
2019-05-03T05:02:35.415Z,2.50
2019-05-03T05:05:02.304Z,2.83
2019-05-03T05:07:48.661Z,2.73
2019-05-03T05:10:15.676Z,5.00
2019-05-03T05:12:42.351Z,3.07
2019-05-03T05:15:09.343Z,2.73
2019-05-03T05:17:56.735Z,2.57
2019-05-03T05:23:16.692Z,2.23
2019-05-03T05:28:42.028Z,2.30
2019-05-03T05:31:08.910Z,2.67
2019-05-03T05:33:35.757Z,2.57
2019-05-03T05:36:04.729Z,2.60
2019-05-03T05:38:31.946Z,2.63
2019-05-03T05:40:59.038Z,2.53
2019-05-03T05:43:26.257Z,2.17
2019-05-03T05:45:55.208Z,2.40
2019-05-03T05:51:05.716Z,1.90
2019-05-03T05:53:32.374Z,3.10
2019-05-03T05:56:18.960Z,2.30
2019-05-03T05:59:05.423Z,2.70
2019-05-03T06:04:29.849Z,2.87
2019-05-03T06:10:14.705Z,2.30
2019-05-03T06:13:15.176Z,2.10
2019-05-03T06:15:49.635Z,2.20
2019-05-03T06:21:28.261Z,2.70
2019-05-03T06:24:14.885Z,2.63
2019-05-03T06:27:01.433Z,2.50
2019-05-03T06:29:28.462Z,2.13
2019-05-03T06:32:15.353Z,2.50
2019-05-03T06:34:42.674Z,3.07
2019-05-03T06:39:59.073Z,2.30
2019-05-03T06:42:25.810Z,2.43
2019-05-03T06:44:54.123Z,2.50
2019-05-03T06:47:46.032Z,2.67
2019-05-03T06:50:10.577Z,2.53
2019-05-03T06:52:37.672Z,2.70
2019-05-03T06:55:09.301Z,2.20
2019-05-03T07:00:41.895Z,3.07
2019-05-03T07:03:28.917Z,2.77
2019-05-03T07:06:15.521Z,2.53
2019-05-03T07:09:01.791Z,2.30
2019-05-03T07:11:28.846Z,2.57
2019-05-03T07:13:56.031Z,2.10
2019-05-03T07:16:22.823Z,2.43
2019-05-03T07:18:50.010Z,2.40
2019-05-03T07:21:17.300Z,2.70
2019-05-03T07:23:45.077Z,2.20
2019-05-03T07:26:14.910Z,2.83
2019-05-03T07:28:46.860Z,2.37
2019-05-03T07:31:10.544Z,3.83
2019-05-03T07:33:37.279Z,2.63
2019-05-03T07:36:05.352Z,2.53
2019-05-03T07:38:45.809Z,2.33
2019-05-03T07:41:14.771Z,2.93
2019-05-03T07:43:41.363Z,2.30
2019-05-03T07:46:08.643Z,2.97
2019-05-03T07:48:35.784Z,2.27
2019-05-03T07:51:02.513Z,2.50
2019-05-03T07:53:29.312Z,2.10
2019-05-03T07:56:15.919Z,2.27
2019-05-03T07:58:59.508Z,2.63
2019-05-03T08:04:09.443Z,2.60
2019-05-03T08:06:36.175Z,2.53
2019-05-03T08:09:45.364Z,2.20
2019-05-03T08:12:12.446Z,1.97
2019-05-03T08:14:39.496Z,2.03
2019-05-03T08:17:06.586Z,2.13
2019-05-03T08:19:35.514Z,2.00
2019-05-03T08:22:04.602Z,2.50
2019-05-03T08:24:31.485Z,2.23
2019-05-03T08:26:58.198Z,2.53
2019-05-03T08:29:25.022Z,2.30
2019-05-03T08:32:11.571Z,2.13
2019-05-03T08:34:58.216Z,2.40
2019-05-03T08:37:29.238Z,2.20
2019-05-03T08:40:09.054Z,2.07
2019-05-03T08:42:35.936Z,2.13
2019-05-03T08:45:04.553Z,2.10
2019-05-03T08:47:32.035Z,2.00
2019-05-03T08:49:59.127Z,2.07
2019-05-03T08:52:26.166Z,1.80
2019-05-03T08:54:54.979Z,2.00
2019-05-03T08:57:22.245Z,2.10
2019-05-03T08:59:49.755Z,2.10
2019-05-03T09:02:17.848Z,2.60
2019-05-03T09:04:46.426Z,2.27
2019-05-03T09:07:15.406Z,2.20
2019-05-03T09:13:05.551Z,1.83
2019-05-03T09:15:31.830Z,2.10
2019-05-03T09:17:58.922Z,2.23
2019-05-03T09:20:26.694Z,2.07
2019-05-03T09:22:54.964Z,2.10
2019-05-03T09:25:24.770Z,2.00
2019-05-03T09:27:52.232Z,1.90
2019-05-03T09:30:19.259Z,2.00
2019-05-03T09:32:46.060Z,2.30
2019-05-03T09:35:27.187Z,2.10
2019-05-03T09:37:42.216Z,2.43
2019-05-03T09:40:09.411Z,1.87
2019-05-03T09:42:36.581Z,1.87
2019-05-03T09:45:04.941Z,2.20
2019-05-03T09:47:32.846Z,1.87
2019-05-03T09:50:02.111Z,2.00
2019-05-03T09:52:29.371Z,2.00
2019-05-03T09:57:50.495Z,2.30
2019-05-03T10:00:18.045Z,1.70
2019-05-03T10:02:45.091Z,2.23
2019-05-03T10:05:15.584Z,2.20
2019-05-03T10:07:42.726Z,1.80
2019-05-03T10:10:09.598Z,1.90
2019-05-03T10:12:36.334Z,1.60
2019-05-03T10:15:06.355Z,1.87
2019-05-03T10:17:51.651Z,1.83
2019-05-03T10:20:18.681Z,1.83
2019-05-03T10:22:45.911Z,2.20
2019-05-03T10:25:12.890Z,1.60
2019-05-03T10:27:59.318Z,2.00
2019-05-03T10:30:27.778Z,1.63
2019-05-03T10:35:48.174Z,2.13
2019-05-03T10:38:15.229Z,1.90
2019-05-03T10:40:42.053Z,2.20
2019-05-03T10:43:09.586Z,1.77
2019-05-03T10:45:36.361Z,3.10
2019-05-03T10:48:04.818Z,1.60
2019-05-03T10:50:31.994Z,2.27
2019-05-03T10:56:13.366Z,1.97
2019-05-03T10:58:40.353Z,2.00
2019-05-03T11:01:07.480Z,1.50
2019-05-03T11:03:34.991Z,1.70
2019-05-03T11:06:02.155Z,1.90
2019-05-03T11:08:30.160Z,1.60
2019-05-03T11:10:57.992Z,2.30
2019-05-03T11:13:26.418Z,1.70
2019-05-03T11:15:54.903Z,1.60
2019-05-03T11:18:25.173Z,1.90
2019-05-03T11:20:51.770Z,1.87
2019-05-03T11:23:18.659Z,1.87
2019-05-03T11:26:05.205Z,1.90
2019-05-03T11:28:32.502Z,1.90
2019-05-03T11:31:19.244Z,1.83
2019-05-03T11:33:46.366Z,1.87
2019-05-03T11:36:34.774Z,2.17
2019-05-03T11:39:01.733Z,1.50
2019-05-03T11:44:36.345Z,1.80
2019-05-03T11:47:05.786Z,1.93
2019-05-03T11:49:34.722Z,1.60
2019-05-03T11:52:02.284Z,2.00
2019-05-03T11:54:31.594Z,2.20
2019-05-03T11:59:34.495Z,2.27
2019-05-03T12:02:44.772Z,2.00
2019-05-03T12:05:32.762Z,1.60
2019-05-03T12:07:59.870Z,1.60
2019-05-03T12:10:44.798Z,2.00
2019-05-03T12:13:34.916Z,1.90
2019-05-03T12:16:04.905Z,1.67
2019-05-03T12:18:44.913Z,1.90
2019-05-03T12:21:01.219Z,2.10
2019-05-03T12:23:31.947Z,1.83
2019-05-03T12:25:59.318Z,1.93
2019-05-03T12:28:47.049Z,1.87
2019-05-03T12:31:29.743Z,2.40
2019-05-03T12:33:45.755Z,1.80
2019-05-03T12:36:12.718Z,1.97
2019-05-03T12:38:59.467Z,1.70
2019-05-03T12:41:27.067Z,1.97
2019-05-03T12:43:55.138Z,1.90
2019-05-03T12:46:23.285Z,1.90
2019-05-03T12:49:10.217Z,1.93
2019-05-03T12:51:38.186Z,1.73
2019-05-03T12:54:06.010Z,2.10
2019-05-03T12:56:35.741Z,1.90
2019-05-03T13:02:04.852Z,1.77
2019-05-03T13:04:34.973Z,1.90
2019-05-03T13:07:21.753Z,2.13
2019-05-03T13:09:48.737Z,1.90
2019-05-03T13:15:05.088Z,1.70
2019-05-03T13:17:55.363Z,2.20
2019-05-03T13:20:45.446Z,1.83
2019-05-03T13:23:13.088Z,1.87
2019-05-03T13:25:41.196Z,2.37
2019-05-03T13:28:09.353Z,2.33
2019-05-03T13:30:36.375Z,2.03
2019-05-03T13:33:05.655Z,1.67
2019-05-03T13:35:35.104Z,1.80
2019-05-03T13:38:25.049Z,1.97
2019-05-03T13:43:47.240Z,1.70
2019-05-03T13:46:15.656Z,1.77
2019-05-03T13:48:46.670Z,2.00
2019-05-03T13:51:14.605Z,2.13
2019-05-03T13:53:41.464Z,1.70
2019-05-03T13:58:42.024Z,1.83
2019-05-03T14:01:09.445Z,2.50
2019-05-03T14:03:36.683Z,2.20
2019-05-03T14:06:08.338Z,1.90
2019-05-03T14:08:35.006Z,2.10
2019-05-03T14:11:02.349Z,1.93
2019-05-03T14:13:29.535Z,1.90
2019-05-03T14:16:16.631Z,1.77
2019-05-03T14:21:54.516Z,1.53
2019-05-03T14:24:21.502Z,1.77
2019-05-03T14:26:48.815Z,1.73
2019-05-03T14:29:16.022Z,1.53
2019-05-03T14:31:45.410Z,2.03
2019-05-03T14:34:25.745Z,1.70
2019-05-03T14:36:55.465Z,1.80
2019-05-03T14:39:42.674Z,1.90
2019-05-03T14:42:09.766Z,2.33
2019-05-03T14:44:36.983Z,1.90
2019-05-03T14:47:05.752Z,1.90
2019-05-03T14:49:46.008Z,2.03
2019-05-03T14:52:14.615Z,1.90
2019-05-03T15:03:08.712Z,1.77
2019-05-03T15:05:35.532Z,2.03
2019-05-03T15:08:02.611Z,2.00
2019-05-03T15:10:29.985Z,1.90
2019-05-03T15:12:57.003Z,1.90
2019-05-03T15:15:25.099Z,1.90
2019-05-03T15:17:54.923Z,2.00
2019-05-03T15:20:22.125Z,2.33
2019-05-03T15:22:49.652Z,2.00
2019-05-03T15:25:17.162Z,1.90
2019-05-03T15:27:44.820Z,2.20
2019-05-03T15:30:35.275Z,1.70
2019-05-03T15:33:04.991Z,1.73
2019-05-03T15:35:34.918Z,2.00
2019-05-03T15:38:21.326Z,2.17
2019-05-03T15:40:49.274Z,2.00
2019-05-03T15:43:55.962Z,2.33
2019-05-03T15:46:44.735Z,1.97
2019-05-03T15:49:12.489Z,1.90
2019-05-03T15:51:39.778Z,1.87
2019-05-03T15:54:06.880Z,1.90
2019-05-03T15:56:34.216Z,1.77
2019-05-03T15:59:01.720Z,1.60
2019-05-03T16:01:48.683Z,2.20
2019-05-03T16:04:15.787Z,1.63
2019-05-03T16:06:44.818Z,2.20
2019-05-03T16:09:12.661Z,1.97
2019-05-03T16:11:39.958Z,1.97
2019-05-03T16:14:07.075Z,2.10
2019-05-03T16:16:35.365Z,2.10
2019-05-03T16:19:05.395Z,2.13
2019-05-03T16:21:34.121Z,1.97
2019-05-03T16:24:04.883Z,1.80
2019-05-03T16:26:32.648Z,2.00
2019-05-03T16:29:19.422Z,1.60
2019-05-03T16:31:46.054Z,1.63
2019-05-03T16:34:12.804Z,1.73
2019-05-03T16:36:40.002Z,1.97
2019-05-03T16:39:07.346Z,2.07
2019-05-03T16:41:35.417Z,1.80
2019-05-03T16:44:24.360Z,1.83
2019-05-03T16:46:52.098Z,1.60
2019-05-03T16:49:19.173Z,2.17
2019-05-03T16:51:46.333Z,1.70
2019-05-03T16:54:14.596Z,1.80
2019-05-03T16:56:44.319Z,1.83
2019-05-03T16:59:11.566Z,1.80
2019-05-03T17:01:39.246Z,2.00
2019-05-03T17:04:25.937Z,1.93
2019-05-03T17:09:55.375Z,1.67
2019-05-03T17:15:14.480Z,1.80
2019-05-03T17:17:42.476Z,1.80
2019-05-03T17:20:09.695Z,2.00
2019-05-03T17:22:36.809Z,2.10
2019-05-03T17:25:04.700Z,1.97
2019-05-03T17:27:34.293Z,1.80
2019-05-03T17:30:04.513Z,1.90
2019-05-03T17:32:51.168Z,1.90
2019-05-03T17:35:18.471Z,1.90
2019-05-03T17:37:45.568Z,2.00
2019-05-03T17:40:32.457Z,2.20
2019-05-03T17:43:19.292Z,2.50
2019-05-03T17:48:28.753Z,1.83
2019-05-03T17:50:56.322Z,1.83
2019-05-03T17:53:44.997Z,1.70
2019-05-03T17:56:47.137Z,2.00
2019-05-03T17:59:35.099Z,2.10
2019-05-03T18:02:22.984Z,1.87
2019-05-03T18:05:09.949Z,1.83
2019-05-03T18:07:56.683Z,1.70
2019-05-03T18:12:59.236Z,2.10
2019-05-03T18:15:26.032Z,2.13
2019-05-03T18:17:54.742Z,2.30
2019-05-03T18:20:22.282Z,2.27
2019-05-03T18:22:49.386Z,2.20
2019-05-03T18:25:16.546Z,2.30
2019-05-03T18:27:44.585Z,2.50
2019-05-03T18:30:13.258Z,2.60
2019-05-03T18:32:40.507Z,2.13
2019-05-03T18:35:07.616Z,2.30
2019-05-03T18:37:35.106Z,2.23
2019-05-03T18:40:02.251Z,2.37
2019-05-03T18:42:48.923Z,2.30
2019-05-03T18:47:55.173Z,3.00
2019-05-03T18:50:22.305Z,2.63
2019-05-03T18:52:49.443Z,2.60
2019-05-03T18:55:16.633Z,2.83
2019-05-03T18:57:46.594Z,2.73
2019-05-03T19:00:15.357Z,2.80
2019-05-03T19:02:44.510Z,2.40
2019-05-03T19:05:15.188Z,2.70
2019-05-03T19:16:46.183Z,2.33
2019-05-03T19:22:25.035Z,2.63
2019-05-03T19:24:52.389Z,2.20
2019-05-03T19:27:39.649Z,2.93
2019-05-03T19:30:26.283Z,2.77
2019-05-03T19:33:13.355Z,2.50
2019-05-03T19:35:40.483Z,2.70
2019-05-03T19:38:08.894Z,3.20
2019-05-03T19:40:56.677Z,2.57
2019-05-03T19:43:24.382Z,2.37
2019-05-03T19:45:53.701Z,2.40
2019-05-03T19:48:21.135Z,2.60
2019-05-03T19:50:48.285Z,2.57
2019-05-03T19:55:58.998Z,3.10
2019-05-03T19:58:39.296Z,2.10
2019-05-03T20:01:26.338Z,2.53
2019-05-03T20:09:39.115Z,2.90
2019-05-03T20:12:06.589Z,2.10
2019-05-03T20:14:35.748Z,2.63
2019-05-03T20:17:04.730Z,2.70
2019-05-03T20:19:32.237Z,2.43
2019-05-03T20:21:59.354Z,2.73
2019-05-03T20:24:26.455Z,2.63
2019-05-03T20:26:53.652Z,2.30
2019-05-03T20:29:20.736Z,2.67
2019-05-03T20:31:47.982Z,2.10
2019-05-03T20:34:15.815Z,2.80
2019-05-03T20:36:45.339Z,2.40
2019-05-03T20:39:14.844Z,2.30
2019-05-03T20:41:42.283Z,2.40
2019-05-03T20:44:28.982Z,2.27
2019-05-03T20:47:10.141Z,2.77
2019-05-03T20:49:37.296Z,2.60
2019-05-03T20:52:04.383Z,2.23
2019-05-03T20:54:31.533Z,2.27
2019-05-03T20:56:58.737Z,2.83
2019-05-03T20:59:45.272Z,2.60
2019-05-03T21:02:07.339Z,2.93
2019-05-03T21:04:35.334Z,2.90
2019-05-03T21:07:04.678Z,3.00
2019-05-03T21:09:34.169Z,3.03
2019-05-03T21:12:01.536Z,2.60
2019-05-03T21:14:28.672Z,2.93
2019-05-03T21:17:15.400Z,3.50
2019-05-03T21:20:02.107Z,2.60
2019-05-03T21:22:48.759Z,3.10
2019-05-03T21:25:46.911Z,3.23
2019-05-03T21:28:04.904Z,3.10
2019-05-03T21:30:32.916Z,3.13
2019-05-03T21:33:01.432Z,3.03
2019-05-03T21:35:40.820Z,2.70
2019-05-03T21:37:57.580Z,2.47
2019-05-03T21:40:24.667Z,2.90
2019-05-03T21:42:52.025Z,3.10
2019-05-03T21:48:31.766Z,2.83
2019-05-03T21:50:58.408Z,3.87
2019-05-03T21:53:25.819Z,2.90
2019-05-03T21:55:52.952Z,3.10
2019-05-03T21:58:20.061Z,2.70
2019-05-03T22:01:05.130Z,3.20
2019-05-03T22:03:32.301Z,3.00
2019-05-03T22:05:59.418Z,2.93
2019-05-03T22:08:26.522Z,3.23
2019-05-03T22:10:55.469Z,2.77
2019-05-03T22:13:24.566Z,3.23
2019-05-03T22:18:31.389Z,3.00
2019-05-03T22:24:07.452Z,3.23
2019-05-03T22:26:54.109Z,3.13
2019-05-03T22:29:21.238Z,3.33
2019-05-03T22:31:48.653Z,3.50
2019-05-03T22:34:35.266Z,3.00
2019-05-03T22:37:02.351Z,3.77
2019-05-03T22:39:29.435Z,3.50
2019-05-03T22:41:56.641Z,3.50
2019-05-03T22:44:25.332Z,4.00
2019-05-03T22:46:52.718Z,3.90
2019-05-03T22:49:19.881Z,3.37
2019-05-03T22:51:47.014Z,4.27
2019-05-03T22:54:15.363Z,4.23
2019-05-03T22:56:44.737Z,4.40
2019-05-03T22:59:14.516Z,4.63
2019-05-03T23:01:41.756Z,5.00
2019-05-03T23:04:08.883Z,4.87
2019-05-03T23:06:35.995Z,4.53
2019-05-03T23:09:44.670Z,4.47
2019-05-03T23:12:11.580Z,5.33
2019-05-03T23:14:38.580Z,4.27
2019-05-03T23:17:05.556Z,4.73
2019-05-03T23:25:02.112Z,4.10
2019-05-03T23:27:29.244Z,4.23
2019-05-03T23:29:56.350Z,4.80
2019-05-03T23:32:24.480Z,4.27
2019-05-03T23:34:54.426Z,4.53
2019-05-03T23:37:22.028Z,4.60
2019-05-03T23:39:49.160Z,4.33
2019-05-03T23:42:16.256Z,4.73
2019-05-03T23:44:45.681Z,4.13
2019-05-03T23:47:34.355Z,4.10
2019-05-03T23:50:01.253Z,4.47
2019-05-03T23:52:48.060Z,4.40
2019-05-03T23:57:55.436Z,4.20
